Time;durP1;ratioP1;P1;durP2;ratioP2;P2;SDS_P1;SDS_P2;PMS_P1;PMS_P2;Temp;Humidity;BMP_temperature;BMP_pressure;BME280_temperature;BME280_humidity;BME280_pressure;Samples;Min_cycle;Max_cycle;Signal;HPM_P1;HPM_P2
2022/05/19 00:01:36;;;;;;;3.90;3.50;;;25.20;43.60;;;;;;5071249;28;20430;-45
2022/05/19 00:04:02;;;;;;;4.73;3.97;;;25.20;44.00;;;;;;5071874;28;20548;-45
2022/05/19 00:06:28;;;;;;;4.37;3.97;;;25.10;45.10;;;;;;5071640;28;20195;-44
2022/05/19 00:08:53;;;;;;;4.50;4.10;;;25.00;45.60;;;;;;5071881;28;20686;-45
2022/05/19 00:11:24;;;;;;;4.10;3.80;;;24.90;45.80;;;;;;5071702;28;20195;-45
2022/05/19 00:13:50;;;;;;;4.13;3.73;;;24.90;46.30;;;;;;5071362;28;20318;-47
2022/05/19 00:16:15;;;;;;;4.00;3.70;;;24.80;46.40;;;;;;5071728;28;21940;-45
2022/05/19 00:18:41;;;;;;;4.67;3.80;;;24.70;46.40;;;;;;5071702;28;20195;-45
2022/05/19 00:21:06;;;;;;;4.47;3.90;;;24.70;46.40;;;;;;5071378;28;20184;-45
2022/05/19 00:23:33;;;;;;;4.57;3.60;;;24.60;46.40;;;;;;5071205;28;20196;-45
2022/05/19 00:25:58;;;;;;;5.57;4.87;;;24.50;46.30;;;;;;5070250;28;20192;-45
2022/05/19 00:28:24;;;;;;;3.57;3.27;;;24.50;46.40;;;;;;5071608;28;20414;-45
2022/05/19 00:30:50;;;;;;;4.07;3.60;;;24.40;46.40;;;;;;5070888;28;20196;-44
2022/05/19 00:33:15;;;;;;;3.90;3.60;;;24.40;46.40;;;;;;5071364;28;20629;-44
2022/05/19 00:35:41;;;;;;;3.33;3.03;;;24.30;46.20;;;;;;5071139;28;20192;-45
2022/05/19 00:38:08;;;;;;;7.30;3.10;;;24.20;46.00;;;;;;5071220;28;20184;-44
2022/05/19 00:40:34;;;;;;;3.33;3.03;;;24.20;46.00;;;;;;5070910;28;20514;-47
2022/05/19 00:43:00;;;;;;;3.70;3.30;;;24.10;46.10;;;;;;5070794;28;20423;-45
2022/05/19 00:45:30;;;;;;;3.87;3.10;;;24.00;46.20;;;;;;5070822;28;20414;-46
2022/05/19 00:48:24;;;;;;;4.17;3.80;;;23.90;46.40;;;;;;5071076;28;20237;-45
2022/05/19 00:50:54;;;;;;;5.10;3.87;;;23.90;46.30;;;;;;5066791;28;20438;-45
2022/05/19 00:53:20;;;;;;;4.13;3.83;;;23.80;46.40;;;;;;5070719;28;20568;-44
2022/05/19 00:55:48;;;;;;;3.37;3.10;;;23.70;46.40;;;;;;5070442;28;20522;-45
2022/05/19 00:58:23;;;;;;;3.50;3.00;;;23.70;46.60;;;;;;5071176;28;20196;-44
2022/05/19 01:00:49;;;;;;;3.73;3.40;;;23.60;46.90;;;;;;5070343;28;20418;-45
2022/05/19 01:03:16;;;;;;;5.47;3.70;;;23.10;47.70;;;;;;5059295;28;20487;-44
2022/05/19 01:05:47;;;;;;;4.40;3.17;;;22.80;49.10;;;;;;5068312;28;20713;-46
2022/05/19 01:08:29;;;;;;;4.60;2.87;;;22.70;48.60;;;;;;5071025;28;20425;-46
2022/05/19 01:10:57;;;;;;;4.20;3.63;;;22.80;48.50;;;;;;5070393;28;20471;-44
2022/05/19 01:13:23;;;;;;;3.87;3.57;;;22.90;48.30;;;;;;5070077;28;20984;-45
2022/05/19 01:15:52;;;;;;;3.40;3.10;;;22.80;48.30;;;;;;5070089;28;20817;-45
2022/05/19 01:18:18;;;;;;;4.80;3.90;;;22.70;48.60;;;;;;5068945;28;20796;-44
2022/05/19 01:20:48;;;;;;;5.13;3.67;;;22.60;48.60;;;;;;5070321;28;20418;-46
2022/05/19 01:23:18;;;;;;;4.07;3.67;;;22.20;49.30;;;;;;5070178;28;20505;-44
2022/05/19 01:26:12;;;;;;;3.70;3.40;;;22.10;49.40;;;;;;5070152;28;20437;-45
2022/05/19 01:28:38;;;;;;;3.67;3.37;;;22.20;49.60;;;;;;5070439;28;20426;-44
2022/05/19 01:31:04;;;;;;;4.90;3.73;;;22.30;49.30;;;;;;5069897;28;20433;-44
2022/05/19 01:33:30;;;;;;;3.80;3.50;;;22.20;49.20;;;;;;5069843;28;20219;-44
2022/05/19 01:35:55;;;;;;;3.30;3.00;;;22.10;48.80;;;;;;5069895;28;20219;-45
2022/05/19 01:38:27;;;;;;;3.87;3.57;;;22.10;48.30;;;;;;5070206;28;20275;-46
2022/05/19 01:40:58;;;;;;;3.60;3.30;;;22.20;48.20;;;;;;5069668;28;20245;-45
2022/05/19 01:44:03;;;;;;;4.20;3.50;;;22.00;48.20;;;;;;5069872;28;20435;-44
2022/05/19 01:46:34;;;;;;;3.60;3.27;;;21.90;49.00;;;;;;5067967;28;20484;-44
2022/05/19 01:49:18;;;;;;;6.07;2.90;;;21.90;48.50;;;;;;5070186;28;20472;-44
2022/05/19 01:52:02;;;;;;;3.03;2.80;;;21.90;47.90;;;;;;5068785;28;20428;-44
2022/05/19 01:54:37;;;;;;;5.67;2.60;;;21.70;48.10;;;;;;5069717;28;20530;-45
2022/05/19 01:57:06;;;;;;;3.03;2.83;;;21.70;48.10;;;;;;5069372;28;21065;-44
2022/05/19 01:59:40;;;;;;;3.10;2.80;;;21.60;48.20;;;;;;5070149;28;20462;-46
2022/05/19 02:02:09;;;;;;;4.63;3.30;;;21.50;48.50;;;;;;5068785;28;20430;-44
2022/05/19 02:04:47;;;;;;;4.03;3.73;;;21.60;48.50;;;;;;5069680;28;21008;-44
2022/05/19 02:07:15;;;;;;;3.50;3.20;;;21.50;48.80;;;;;;5069552;28;20565;-44
2022/05/19 02:09:50;;;;;;;3.60;3.30;;;21.50;49.50;;;;;;5069938;28;20948;-44
2022/05/19 02:12:17;;;;;;;3.73;3.10;;;21.60;49.50;;;;;;5067585;28;20422;-45
2022/05/19 02:14:52;;;;;;;3.87;3.23;;;21.70;50.00;;;;;;5070009;28;20489;-44
2022/05/19 02:17:21;;;;;;;3.67;3.37;;;21.80;49.60;;;;;;5069746;28;20418;-44
2022/05/19 02:19:51;;;;;;;3.80;3.50;;;21.90;49.30;;;;;;5070088;28;20790;-44
2022/05/19 02:22:20;;;;;;;3.63;3.33;;;21.90;49.30;;;;;;5069292;28;20997;-44
2022/05/19 02:25:19;;;;;;;5.40;3.77;;;21.90;49.20;;;;;;5070118;28;20433;-45
2022/05/19 02:28:02;;;;;;;3.80;3.50;;;21.90;49.30;;;;;;5069260;28;20446;-45
2022/05/19 02:30:33;;;;;;;3.47;3.27;;;22.00;49.00;;;;;;5069321;28;20430;-44
2022/05/19 02:32:59;;;;;;;5.63;3.60;;;22.10;48.80;;;;;;5069227;28;20496;-45
2022/05/19 02:35:26;;;;;;;3.77;3.33;;;22.20;48.70;;;;;;5069114;28;20423;-44
2022/05/19 02:37:52;;;;;;;5.90;3.67;;;22.20;48.50;;;;;;5069542;28;20555;-44
2022/05/19 02:40:23;;;;;;;4.03;3.63;;;22.30;48.60;;;;;;5067577;28;20503;-44
2022/05/19 02:42:49;;;;;;;4.23;3.27;;;22.30;48.70;;;;;;5069161;28;20435;-45
2022/05/19 02:45:16;;;;;;;3.90;3.50;;;22.20;49.20;;;;;;5069223;28;20923;-44
2022/05/19 02:47:43;;;;;;;6.73;3.70;;;22.20;48.60;;;;;;5069648;28;20214;-44
2022/05/19 02:50:11;;;;;;;4.07;3.53;;;22.20;48.70;;;;;;5069081;28;20426;-45
2022/05/19 02:52:36;;;;;;;3.83;3.43;;;22.20;48.70;;;;;;5069026;28;20513;-45
2022/05/19 02:55:03;;;;;;;3.70;3.10;;;22.20;48.70;;;;;;5068832;28;20510;-44
2022/05/19 02:57:28;;;;;;;3.27;3.07;;;22.20;48.80;;;;;;5069326;28;20200;-45
2022/05/19 02:59:54;;;;;;;3.73;3.43;;;22.10;48.60;;;;;;5069106;28;20973;-44
2022/05/19 03:02:19;;;;;;;3.63;3.33;;;22.10;48.70;;;;;;5065177;28;20250;-45
2022/05/19 03:04:45;;;;;;;3.37;3.10;;;22.10;48.80;;;;;;5062649;28;20200;-45
2022/05/19 03:07:11;;;;;;;3.87;3.13;;;22.10;48.80;;;;;;5071148;28;20194;-44
2022/05/19 03:09:40;;;;;;;3.93;3.53;;;22.00;48.60;;;;;;5073151;28;20289;-44
2022/05/19 03:12:07;;;;;;;5.10;3.53;;;22.00;48.50;;;;;;5071767;28;20198;-44
2022/05/19 03:14:33;;;;;;;3.23;3.03;;;21.90;48.40;;;;;;5072901;28;20482;-44
2022/05/19 03:16:58;;;;;;;3.63;3.10;;;21.90;48.30;;;;;;5072068;28;20441;-44
2022/05/19 03:19:24;;;;;;;3.90;3.43;;;21.90;48.50;;;;;;5073119;28;20184;-44
2022/05/19 03:21:50;;;;;;;7.20;3.67;;;21.90;48.90;;;;;;5072234;28;20228;-44
2022/05/19 03:24:15;;;;;;;5.00;3.80;;;21.90;49.30;;;;;;5072962;28;20192;-45
2022/05/19 03:26:41;;;;;;;4.37;3.70;;;21.90;49.60;;;;;;5072019;28;20199;-44
2022/05/19 03:29:07;;;;;;;3.80;3.50;;;21.80;49.70;;;;;;5072829;28;20659;-44
2022/05/19 03:31:34;;;;;;;4.50;3.60;;;21.80;49.50;;;;;;5071560;28;20291;-44
2022/05/19 03:34:00;;;;;;;3.40;3.10;;;21.80;49.40;;;;;;5071084;28;20682;-44
2022/05/19 03:36:26;;;;;;;4.10;3.70;;;21.80;49.30;;;;;;5071732;28;20437;-43
2022/05/19 03:38:51;;;;;;;5.67;3.73;;;21.70;49.30;;;;;;5072537;28;20418;-44
2022/05/19 03:41:17;;;;;;;9.50;3.90;;;21.70;49.30;;;;;;5071534;28;20271;-45
2022/05/19 03:43:42;;;;;;;4.20;3.60;;;21.60;49.20;;;;;;5072443;28;20188;-43
2022/05/19 03:46:08;;;;;;;6.03;3.77;;;21.50;49.20;;;;;;5071889;28;20306;-44
2022/05/19 03:48:38;;;;;;;4.87;3.83;;;21.50;49.40;;;;;;5072752;28;20184;-44
2022/05/19 03:51:06;;;;;;;4.67;4.20;;;21.40;49.80;;;;;;5071764;28;20195;-44
2022/05/19 03:53:32;;;;;;;4.40;4.00;;;21.20;50.20;;;;;;5071950;28;20486;-44
2022/05/19 03:55:58;;;;;;;3.80;3.60;;;21.30;50.40;;;;;;5071913;28;20428;-45
2022/05/19 03:58:23;;;;;;;4.13;3.67;;;21.30;50.30;;;;;;5072361;28;20669;-44
2022/05/19 04:00:49;;;;;;;5.83;4.10;;;21.30;50.50;;;;;;5070089;28;20233;-46
2022/05/19 04:03:15;;;;;;;4.73;4.03;;;21.20;50.50;;;;;;5060502;28;20294;-45
2022/05/19 04:05:42;;;;;;;6.00;3.47;;;21.20;50.40;;;;;;5069751;28;20243;-49
2022/05/19 04:08:07;;;;;;;4.37;3.70;;;21.20;50.50;;;;;;5072210;28;20520;-48
2022/05/19 04:10:33;;;;;;;3.87;3.50;;;21.20;50.40;;;;;;5071274;28;20187;-44
2022/05/19 04:12:59;;;;;;;5.13;3.70;;;21.30;50.50;;;;;;5071550;28;20228;-46
2022/05/19 04:15:25;;;;;;;4.50;3.83;;;21.30;50.40;;;;;;5070631;28;20188;-44
2022/05/19 04:17:50;;;;;;;4.07;3.77;;;21.30;50.40;;;;;;5071936;28;20453;-45
2022/05/19 04:20:16;;;;;;;4.07;3.77;;;21.30;50.40;;;;;;5071185;28;20458;-44
2022/05/19 04:22:42;;;;;;;7.10;4.60;;;21.30;50.40;;;;;;5071511;28;20226;-47
2022/05/19 04:25:10;;;;;;;6.23;3.97;;;21.20;50.70;;;;;;5069709;28;20654;-47
2022/05/19 04:27:36;;;;;;;4.20;3.80;;;21.00;50.90;;;;;;5070039;28;20246;-44
2022/05/19 04:30:02;;;;;;;4.33;3.93;;;21.00;51.00;;;;;;5071047;28;20806;-47
2022/05/19 04:32:27;;;;;;;4.17;3.87;;;20.90;51.30;;;;;;5070860;28;20192;-45
2022/05/19 04:34:53;;;;;;;5.63;4.63;;;20.90;51.40;;;;;;5071117;28;20437;-45
2022/05/19 04:37:18;;;;;;;4.93;4.53;;;21.00;51.30;;;;;;5071290;28;20278;-45
2022/05/19 04:39:44;;;;;;;6.27;4.20;;;21.00;51.20;;;;;;5071284;28;20192;-48
2022/05/19 04:42:12;;;;;;;4.10;3.70;;;21.00;51.30;;;;;;5070443;28;20196;-44
2022/05/19 04:44:38;;;;;;;4.80;4.10;;;21.10;51.20;;;;;;5071434;28;20271;-47
2022/05/19 04:47:04;;;;;;;4.20;3.80;;;21.10;51.20;;;;;;5070879;28;20489;-44
2022/05/19 04:49:30;;;;;;;4.87;3.93;;;21.10;51.20;;;;;;5071209;28;20521;-45
2022/05/19 04:51:56;;;;;;;4.20;3.90;;;21.00;51.20;;;;;;5070722;28;20900;-46
2022/05/19 04:54:22;;;;;;;5.93;5.37;;;20.90;51.50;;;;;;5069323;28;20557;-44
2022/05/19 04:56:49;;;;;;;5.37;3.90;;;20.80;52.40;;;;;;5070623;28;20192;-48
2022/05/19 04:59:14;;;;;;;5.70;4.60;;;20.80;51.80;;;;;;5071042;28;20476;-45
2022/05/19 05:01:46;;;;;;;5.13;4.20;;;20.70;51.90;;;;;;5070045;28;20426;-44
2022/05/19 05:04:13;;;;;;;4.40;4.00;;;20.50;52.40;;;;;;5057869;28;20243;-44
2022/05/19 05:06:38;;;;;;;4.30;4.00;;;20.70;52.20;;;;;;5070307;28;20465;-44
2022/05/19 05:09:05;;;;;;;4.23;3.80;;;20.80;51.70;;;;;;5070608;28;20454;-44
2022/05/19 05:11:30;;;;;;;5.03;4.27;;;20.60;52.00;;;;;;5069911;28;20658;-44
2022/05/19 05:13:56;;;;;;;5.43;4.17;;;20.50;52.50;;;;;;5070667;28;20518;-45
2022/05/19 05:16:22;;;;;;;4.63;4.10;;;20.50;52.30;;;;;;5070368;28;20200;-48
2022/05/19 05:18:48;;;;;;;4.57;4.17;;;20.40;52.60;;;;;;5070455;28;20270;-48
2022/05/19 05:21:13;;;;;;;5.50;4.37;;;20.60;52.70;;;;;;5067038;28;20226;-44
2022/05/19 05:23:40;;;;;;;7.13;4.90;;;20.80;52.10;;;;;;5070564;28;20192;-45
2022/05/19 05:26:06;;;;;;;4.27;3.87;;;20.90;51.90;;;;;;5069233;28;20214;-44
2022/05/19 05:28:33;;;;;;;6.33;4.70;;;20.90;51.80;;;;;;5070174;28;21019;-46
2022/05/19 05:30:59;;;;;;;4.50;4.17;;;20.90;52.40;;;;;;5069544;28;20414;-48
2022/05/19 05:33:25;;;;;;;6.43;5.00;;;20.80;53.10;;;;;;5070325;28;20484;-45
2022/05/19 05:35:51;;;;;;;3.57;3.27;;;21.00;52.70;;;;;;5069675;28;20621;-43
2022/05/19 05:38:17;;;;;;;4.50;3.87;;;21.00;51.60;;;;;;5070417;28;20464;-45
2022/05/19 05:40:43;;;;;;;3.43;2.87;;;21.00;51.30;;;;;;5070197;28;20600;-45
2022/05/19 05:43:12;;;;;;;10.80;4.00;;;21.20;51.00;;;;;;5069885;28;20426;-44
2022/05/19 05:45:38;;;;;;;3.60;3.33;;;21.00;50.80;;;;;;5069538;28;20507;-44
2022/05/19 05:48:04;;;;;;;4.63;4.17;;;21.00;51.40;;;;;;5068575;28;20418;-44
2022/05/19 05:50:29;;;;;;;6.17;3.77;;;20.90;51.60;;;;;;5069780;28;20509;-45
2022/05/19 05:52:55;;;;;;;4.63;4.10;;;21.00;51.00;;;;;;5069730;28;20596;-44
2022/05/19 05:55:21;;;;;;;4.93;3.53;;;21.00;50.10;;;;;;5069596;28;20692;-45
2022/05/19 05:57:47;;;;;;;3.60;3.30;;;21.00;49.80;;;;;;5070081;28;20188;-44
2022/05/19 06:00:13;;;;;;;3.60;3.30;;;21.00;50.30;;;;;;5069701;28;20248;-44
2022/05/19 06:02:40;;;;;;;4.00;3.57;;;21.10;49.40;;;;;;5069106;28;20330;-44
2022/05/19 06:05:06;;;;;;;3.90;3.10;;;21.10;49.30;;;;;;5069711;28;20426;-44
2022/05/19 06:07:32;;;;;;;3.83;3.50;;;21.00;50.10;;;;;;5069953;28;20551;-44
2022/05/19 06:09:58;;;;;;;4.40;3.60;;;21.10;49.50;;;;;;5069420;28;20481;-44
2022/05/19 06:12:25;;;;;;;8.83;3.40;;;21.30;49.30;;;;;;5069777;28;20885;-44
2022/05/19 06:14:53;;;;;;;3.47;3.17;;;21.40;48.80;;;;;;5068092;28;20550;-44
2022/05/19 06:17:19;;;;;;;3.93;3.63;;;21.50;48.80;;;;;;5069591;28;20457;-44
2022/05/19 06:19:45;;;;;;;5.43;3.80;;;21.80;49.10;;;;;;5069885;28;20426;-45
2022/05/19 06:22:11;;;;;;;5.23;3.47;;;21.80;48.50;;;;;;5068930;28;20472;-44
2022/05/19 06:24:36;;;;;;;6.73;4.40;;;22.10;48.50;;;;;;5069648;28;20304;-44
2022/05/19 06:27:02;;;;;;;4.43;4.03;;;22.10;48.00;;;;;;5069162;28;20266;-44
2022/05/19 06:29:28;;;;;;;4.87;4.37;;;22.10;48.30;;;;;;5069714;28;20198;-44
2022/05/19 06:31:54;;;;;;;3.83;3.53;;;22.30;48.70;;;;;;5068776;28;20831;-44
2022/05/19 06:34:19;;;;;;;3.93;3.63;;;22.50;48.30;;;;;;5069798;28;20219;-45
2022/05/19 06:36:46;;;;;;;4.13;3.83;;;22.70;48.00;;;;;;5069068;28;20250;-44
2022/05/19 06:39:11;;;;;;;3.77;3.47;;;22.60;47.60;;;;;;5073846;28;20607;-44
2022/05/19 06:44:21;;;;;;;5.20;3.37;;;22.90;47.20;;;;;;5073601;28;20234;-44
2022/05/19 06:46:47;;;;;;;7.50;3.77;;;23.00;47.40;;;;;;5073115;28;20446;-45
2022/05/19 06:49:13;;;;;;;5.73;3.60;;;23.30;46.90;;;;;;5073612;28;20630;-45
2022/05/19 06:51:39;;;;;;;4.63;3.27;;;23.50;46.50;;;;;;5072621;28;20246;-44
2022/05/19 06:54:05;;;;;;;3.70;3.40;;;23.70;46.40;;;;;;5073279;28;20477;-45
2022/05/19 06:56:31;;;;;;;3.43;3.13;;;23.80;46.20;;;;;;5072816;28;20434;-45
2022/05/19 06:58:56;;;;;;;3.73;3.30;;;23.90;45.60;;;;;;5073372;28;20425;-44
2022/05/19 07:01:22;;;;;;;4.43;3.40;;;24.10;45.60;;;;;;5072487;28;20243;-49
2022/05/19 07:03:49;;;;;;;3.53;3.23;;;24.20;45.60;;;;;;5073017;28;20562;-45
2022/05/19 07:06:15;;;;;;;4.00;3.50;;;24.50;45.20;;;;;;5072631;28;20426;-44
2022/05/19 07:08:41;;;;;;;3.67;3.37;;;24.60;44.50;;;;;;5071759;28;20456;-46
2022/05/19 07:11:24;;;;;;;4.20;3.10;;;24.80;45.10;;;;;;5072348;28;20318;-45
2022/05/19 07:13:51;;;;;;;5.13;3.33;;;25.00;44.50;;;;;;5072928;28;20485;-45
2022/05/19 07:16:17;;;;;;;3.67;3.37;;;25.20;44.30;;;;;;5072263;28;20418;-45
2022/05/19 07:18:43;;;;;;;3.97;3.50;;;25.40;43.60;;;;;;5072924;28;20503;-45
2022/05/19 07:21:09;;;;;;;3.13;2.93;;;25.60;43.30;;;;;;5071925;28;20223;-44
2022/05/19 07:23:36;;;;;;;2.83;2.63;;;25.70;42.60;;;;;;5072543;28;20192;-44
2022/05/19 07:26:02;;;;;;;2.80;2.60;;;25.70;42.60;;;;;;5072206;28;20434;-46
2022/05/19 07:28:28;;;;;;;4.30;3.50;;;25.70;42.70;;;;;;5072889;28;20507;-44
2022/05/19 07:30:53;;;;;;;3.00;2.80;;;25.80;42.80;;;;;;5071790;28;20506;-44
2022/05/19 07:33:19;;;;;;;3.70;3.20;;;26.00;43.10;;;;;;5072298;28;20223;-44
2022/05/19 07:35:46;;;;;;;3.47;2.80;;;26.00;42.80;;;;;;5070723;28;20567;-45
2022/05/19 07:38:14;;;;;;;3.20;2.90;;;26.10;43.30;;;;;;5071405;28;20191;-45
2022/05/19 07:40:41;;;;;;;7.47;3.13;;;26.30;42.90;;;;;;5072028;28;20429;-44
2022/05/19 07:45:50;;;;;;;5.27;3.37;;;26.60;42.00;;;;;;5071970;28;20964;-46
2022/05/19 07:48:16;;;;;;;3.63;3.30;;;26.90;42.30;;;;;;5072339;28;20434;-45
2022/05/19 07:50:42;;;;;;;3.77;3.30;;;27.10;41.30;;;;;;5071152;28;20192;-47
2022/05/19 07:53:08;;;;;;;3.20;3.00;;;27.40;41.30;;;;;;5071877;28;20219;-45
2022/05/19 07:55:34;;;;;;;8.07;3.80;;;27.60;41.00;;;;;;5071541;28;20196;-45
2022/05/19 07:58:00;;;;;;;3.63;3.33;;;27.70;40.90;;;;;;5072399;28;20434;-45
2022/05/19 08:00:25;;;;;;;3.60;3.07;;;27.90;40.30;;;;;;5071630;28;20309;-45
2022/05/19 08:02:51;;;;;;;3.70;3.40;;;28.20;39.90;;;;;;5069663;28;20557;-47
2022/05/19 08:05:17;;;;;;;4.77;2.80;;;28.60;39.60;;;;;;5071512;28;20326;-44
2022/05/19 08:07:42;;;;;;;4.97;3.10;;;28.90;39.80;;;;;;5072517;28;20192;-45
2022/05/19 08:10:20;;;;;;;3.43;3.13;;;29.00;38.00;;;;;;5071570;28;20722;-45
2022/05/19 08:15:37;;;;;;;3.87;3.53;;;29.00;38.90;;;;;;5071313;28;20494;-44
2022/05/19 08:18:07;;;;;;;3.10;2.90;;;29.20;38.10;;;;;;5071783;28;20957;-42
2022/05/19 08:20:34;;;;;;;4.40;3.10;;;29.40;36.90;;;;;;5071470;28;20465;-47
2022/05/19 08:23:01;;;;;;;3.20;3.00;;;29.30;36.60;;;;;;5071683;28;20435;-42
2022/05/19 08:25:27;;;;;;;4.73;3.53;;;29.20;37.20;;;;;;5071266;28;20792;-43
2022/05/19 08:27:55;;;;;;;3.53;3.20;;;29.50;37.40;;;;;;5071779;28;20469;-42
2022/05/19 08:30:20;;;;;;;3.87;3.53;;;29.70;36.30;;;;;;5069566;28;20507;-43
2022/05/19 08:32:46;;;;;;;3.60;3.30;;;29.90;35.90;;;;;;5071094;28;20430;-44
2022/05/19 08:35:12;;;;;;;3.97;2.97;;;29.90;35.70;;;;;;5071304;28;20192;-44
2022/05/19 08:37:38;;;;;;;3.93;3.13;;;30.00;35.50;;;;;;5071200;28;20539;-43
2022/05/19 08:40:04;;;;;;;3.67;3.30;;;30.10;36.00;;;;;;5071087;28;20213;-43
2022/05/19 08:42:34;;;;;;;3.63;3.33;;;30.50;35.00;;;;;;5071079;28;20663;-42
2022/05/19 08:45:03;;;;;;;3.60;3.30;;;30.50;35.00;;;;;;5070929;28;20429;-47
2022/05/19 08:47:34;;;;;;;6.23;2.93;;;30.60;35.20;;;;;;5071263;28;20451;-47
2022/05/19 08:50:19;;;;;;;4.10;3.70;;;30.90;34.90;;;;;;5070895;28;20438;-46
2022/05/19 08:52:50;;;;;;;5.73;3.10;;;30.90;35.00;;;;;;5070953;28;20438;-44
2022/05/19 08:55:17;;;;;;;3.17;2.90;;;31.10;34.90;;;;;;5069800;28;20521;-46
2022/05/19 08:58:10;;;;;;;4.07;3.77;;;31.30;34.30;;;;;;5070558;28;20465;-43
2022/05/19 09:00:43;;;;;;;3.40;3.10;;;31.50;34.50;;;;;;5033017;28;20514;-43
2022/05/19 09:03:21;;;;;;;3.77;3.37;;;31.80;34.30;;;;;;5060599;28;20880;-43
2022/05/19 09:06:01;;;;;;;3.40;3.10;;;31.90;33.90;;;;;;5068671;28;20436;-43
2022/05/19 09:09:04;;;;;;;4.93;2.90;;;32.10;34.10;;;;;;5070777;28;20830;-42
2022/05/19 09:11:39;;;;;;;3.70;3.40;;;32.30;34.50;;;;;;5070022;28;20839;-43
2022/05/19 09:14:24;;;;;;;5.40;4.90;;;32.50;34.20;;;;;;5070659;28;20492;-42
2022/05/19 09:16:53;;;;;;;6.43;3.60;;;32.60;33.30;;;;;;5070078;28;20509;-42
2022/05/19 09:19:23;;;;;;;3.17;2.87;;;32.60;33.20;;;;;;5070727;28;20940;-44
2022/05/19 09:22:02;;;;;;;7.23;3.80;;;32.70;33.60;;;;;;5069982;28;20438;-43
2022/05/19 09:24:27;;;;;;;3.80;3.37;;;32.90;34.50;;;;;;5069140;28;20823;-43
2022/05/19 09:26:55;;;;;;;5.53;4.00;;;32.80;33.60;;;;;;5069918;28;20426;-43
2022/05/19 09:29:40;;;;;;;5.93;3.90;;;32.40;34.40;;;;;;5070479;28;20721;-45
2022/05/19 09:32:12;;;;;;;4.47;3.00;;;32.50;34.40;;;;;;5069405;28;20438;-45
2022/05/19 09:34:40;;;;;;;4.17;3.87;;;32.80;34.70;;;;;;5070232;28;20490;-46
2022/05/19 09:37:16;;;;;;;6.97;3.50;;;33.20;33.80;;;;;;5069854;28;20426;-46
2022/05/19 09:39:59;;;;;;;4.50;3.10;;;33.20;32.80;;;;;;5070530;28;20988;-45
2022/05/19 09:42:35;;;;;;;4.20;3.47;;;33.40;33.00;;;;;;5069908;28;20453;-47
2022/05/19 09:45:03;;;;;;;3.50;3.30;;;33.70;33.00;;;;;;5069998;28;20498;-43
2022/05/19 09:47:33;;;;;;;3.90;3.50;;;33.90;32.30;;;;;;5070256;28;20468;-43
2022/05/19 09:50:31;;;;;;;4.97;3.60;;;34.10;31.80;;;;;;5068034;28;20445;-42
2022/05/19 09:53:05;;;;;;;4.47;3.83;;;33.90;32.30;;;;;;5061473;28;20530;-44
2022/05/19 09:55:32;;;;;;;4.07;3.10;;;34.20;32.60;;;;;;5068369;28;20494;-44
2022/05/19 09:58:00;;;;;;;4.20;3.80;;;34.50;32.20;;;;;;5070127;28;20430;-43
2022/05/19 10:00:49;;;;;;;5.93;3.50;;;34.60;31.30;;;;;;5069569;28;20786;-43
2022/05/19 10:03:46;;;;;;;5.07;3.60;;;34.70;30.90;;;;;;5069503;28;20859;-43
2022/05/19 10:06:18;;;;;;;3.70;3.40;;;34.90;31.40;;;;;;5054952;28;20449;-43
2022/05/19 10:08:45;;;;;;;5.47;3.37;;;35.10;31.70;;;;;;5070124;28;20936;-43
2022/05/19 10:11:14;;;;;;;7.83;3.70;;;35.10;30.50;;;;;;5069255;28;20426;-44
2022/05/19 10:13:48;;;;;;;4.30;3.60;;;35.00;31.30;;;;;;5069062;28;20478;-43
2022/05/19 10:16:42;;;;;;;3.60;3.30;;;35.10;31.20;;;;;;5067739;28;20461;-43
2022/05/19 10:19:17;;;;;;;4.30;3.80;;;35.20;31.00;;;;;;5070135;28;20799;-43
2022/05/19 10:22:05;;;;;;;6.40;3.80;;;35.00;31.10;;;;;;5068857;28;20952;-43
2022/05/19 10:24:49;;;;;;;7.13;4.00;;;35.10;30.70;;;;;;5069884;28;20436;-43
2022/05/19 10:31:04;;;;;;;4.33;3.93;;;35.50;31.60;;;;;;5068880;28;20468;-43
2022/05/19 10:34:07;;;;;;;3.80;3.50;;;35.70;30.40;;;;;;5069458;28;20477;-43
2022/05/19 10:37:08;;;;;;;4.30;4.00;;;36.10;30.60;;;;;;5068986;28;20429;-44
2022/05/19 10:39:47;;;;;;;3.70;3.40;;;36.50;30.40;;;;;;5069733;28;20430;-43
2022/05/19 10:42:25;;;;;;;4.03;3.23;;;36.70;30.40;;;;;;5068626;28;20437;-43
2022/05/19 10:45:03;;;;;;;5.63;4.00;;;36.90;29.80;;;;;;5068102;28;20481;-46
2022/05/19 10:47:56;;;;;;;4.33;3.67;;;37.10;29.90;;;;;;5069909;28;20429;-45
2022/05/19 10:50:26;;;;;;;4.20;3.90;;;37.30;30.10;;;;;;5069147;28;20487;-45
2022/05/19 10:53:11;;;;;;;4.03;3.53;;;37.50;30.10;;;;;;5069252;28;20487;-46
2022/05/19 10:55:51;;;;;;;11.10;4.20;;;37.60;29.60;;;;;;5068988;28;20437;-45
2022/05/19 10:58:38;;;;;;;5.93;3.60;;;37.70;29.60;;;;;;5069675;28;20429;-44
2022/05/19 11:01:24;;;;;;;3.90;3.60;;;37.80;29.60;;;;;;5068804;28;20988;-43
2022/05/19 11:04:10;;;;;;;4.37;3.83;;;37.80;29.10;;;;;;5069034;28;20991;-43
2022/05/19 11:06:55;;;;;;;4.53;4.20;;;37.80;28.80;;;;;;5068827;28;20801;-44
2022/05/19 11:09:24;;;;;;;3.60;3.30;;;37.90;28.70;;;;;;5069452;28;20516;-43
2022/05/19 11:12:02;;;;;;;4.67;4.27;;;38.00;28.70;;;;;;5066907;28;20430;-44
2022/05/19 11:15:09;;;;;;;4.33;3.70;;;38.00;28.10;;;;;;5069433;28;20572;-43
2022/05/19 11:17:50;;;;;;;5.60;3.90;;;38.10;29.60;;;;;;5069451;28;20448;-44
2022/05/19 11:20:26;;;;;;;5.53;3.80;;;38.20;29.80;;;;;;5068907;28;20474;-43
2022/05/19 11:23:03;;;;;;;4.50;3.80;;;38.20;29.30;;;;;;5069263;28;20512;-44
2022/05/19 11:28:28;;;;;;;8.43;4.30;;;38.00;28.50;;;;;;5073077;28;20483;-45
2022/05/19 11:31:02;;;;;;;4.57;3.33;;;37.80;28.70;;;;;;5072040;28;20437;-45
2022/05/19 11:33:34;;;;;;;4.03;3.73;;;38.10;29.10;;;;;;5072656;28;20848;-45
2022/05/19 11:36:25;;;;;;;4.03;3.63;;;38.30;28.90;;;;;;5072099;28;20483;-43
2022/05/19 11:39:06;;;;;;;3.80;3.40;;;38.40;28.20;;;;;;5070833;28;20464;-45
2022/05/19 11:41:36;;;;;;;4.53;3.97;;;37.40;29.40;;;;;;5071625;28;20457;-45
2022/05/19 11:44:13;;;;;;;4.77;4.37;;;37.60;29.10;;;;;;5072590;28;20831;-43
2022/05/19 11:55:11;;;;;;;4.23;3.93;;;37.50;28.80;;;;;;5070560;28;20800;-45
2022/05/19 11:55:46;;;;;;;4.93;4.17;;;38.40;28.10;;;;;;5072085;28;20436;-43
2022/05/19 11:58:22;;;;;;;4.67;4.20;;;38.50;28.50;;;;;;5072131;28;20980;-44
2022/05/19 12:00:52;;;;;;;6.20;4.67;;;38.70;28.50;;;;;;5071182;28;20422;-47
2022/05/19 12:03:43;;;;;;;4.10;3.80;;;39.00;29.00;;;;;;5072107;28;20487;-44
2022/05/19 12:06:12;;;;;;;4.07;3.70;;;39.30;29.00;;;;;;5070764;28;20457;-48
2022/05/19 12:08:56;;;;;;;4.70;4.30;;;39.50;28.40;;;;;;5071921;28;20469;-48
2022/05/19 12:11:40;;;;;;;8.03;3.83;;;39.60;28.80;;;;;;5071119;28;20440;-44
2022/05/19 12:14:16;;;;;;;5.73;4.33;;;39.80;28.50;;;;;;5071788;28;20499;-43
2022/05/19 12:17:00;;;;;;;4.77;4.30;;;39.90;27.50;;;;;;5071255;28;20470;-46
2022/05/19 12:19:44;;;;;;;5.00;4.60;;;39.80;27.60;;;;;;5071951;28;20468;-48
2022/05/19 12:22:12;;;;;;;4.60;4.10;;;39.90;27.20;;;;;;5070983;28;20520;-47
2022/05/19 12:24:51;;;;;;;5.67;5.17;;;39.90;27.00;;;;;;5071894;28;20933;-48
2022/05/19 12:27:23;;;;;;;4.90;4.50;;;39.90;27.00;;;;;;5071459;28;20500;-48
2022/05/19 12:33:22;;;;;;;4.83;4.50;;;40.10;27.40;;;;;;5070201;28;20459;-48
2022/05/19 12:35:59;;;;;;;4.67;4.37;;;40.10;26.50;;;;;;5071004;28;20445;-46
2022/05/19 12:38:40;;;;;;;5.70;4.70;;;40.00;26.60;;;;;;5071495;28;20913;-45
2022/05/19 12:41:10;;;;;;;4.50;4.10;;;39.90;27.10;;;;;;5070662;28;20435;-44
2022/05/19 12:43:56;;;;;;;4.97;4.63;;;40.00;27.60;;;;;;5071466;28;20482;-44
2022/05/19 12:46:34;;;;;;;6.83;5.00;;;40.20;27.70;;;;;;5070679;28;20437;-44
2022/05/19 12:49:31;;;;;;;5.27;4.80;;;40.20;26.20;;;;;;5071181;28;20822;-44
2022/05/19 12:52:00;;;;;;;5.30;4.90;;;40.20;27.70;;;;;;5061751;28;20449;-44
2022/05/19 12:54:28;;;;;;;5.73;4.50;;;40.20;27.90;;;;;;5071063;28;20515;-44
2022/05/19 12:57:16;;;;;;;5.83;4.93;;;40.30;28.00;;;;;;5070398;28;20452;-48
2022/05/19 12:59:49;;;;;;;5.20;4.90;;;40.30;26.90;;;;;;5069238;28;20437;-46
2022/05/19 13:02:59;;;;;;;5.20;4.73;;;40.30;27.30;;;;;;5067414;28;20790;-47
2022/05/19 13:05:40;;;;;;;6.03;4.80;;;40.20;27.60;;;;;;5008134;28;20550;-44
2022/05/19 13:08:10;;;;;;;4.77;4.37;;;40.00;27.80;;;;;;5060238;28;20437;-47
2022/05/19 13:10:50;;;;;;;6.43;5.20;;;40.00;28.20;;;;;;5069939;28;20440;-49
2022/05/19 13:13:27;;;;;;;5.53;5.00;;;40.20;27.80;;;;;;5070797;28;20814;-46
2022/05/19 13:15:56;;;;;;;5.20;4.70;;;40.30;28.00;;;;;;5070264;28;20520;-46
2022/05/19 13:18:28;;;;;;;4.90;4.60;;;40.30;27.20;;;;;;5070506;28;20469;-49
2022/05/19 13:21:06;;;;;;;4.90;4.47;;;40.30;26.60;;;;;;5069885;28;20422;-44
2022/05/19 13:23:33;;;;;;;4.53;4.13;;;40.30;27.10;;;;;;5070692;28;20418;-48
2022/05/19 13:26:04;;;;;;;4.47;4.07;;;40.10;26.70;;;;;;5068304;28;20428;-47
2022/05/19 13:31:29;;;;;;;5.17;4.53;;;40.00;26.70;;;;;;5069866;28;20428;-47
2022/05/19 13:33:57;;;;;;;4.63;4.23;;;39.70;26.90;;;;;;5070399;28;20540;-45
2022/05/19 13:36:35;;;;;;;7.37;4.60;;;39.80;26.90;;;;;;5069706;28;20451;-47